createdAt,value
2023-04-25T08:28:52.960Z,22.8
2023-04-25T08:34:45.531Z,22.8
2023-04-25T08:40:50.533Z,22.8
2023-04-25T08:46:45.843Z,22.8
2023-04-25T08:52:38.263Z,22.8
2023-04-25T08:58:33.370Z,22.8
2023-04-25T09:04:27.805Z,22.8
2023-04-25T09:10:24.129Z,22.8
2023-04-25T09:16:00.831Z,22.8
2023-04-25T09:22:03.173Z,22.8
2023-04-25T09:27:55.106Z,22.8
2023-04-25T09:33:48.775Z,22.8
2023-04-25T09:39:42.150Z,22.8
2023-04-25T09:45:34.479Z,22.8
2023-04-25T09:51:26.169Z,22.8
2023-04-25T09:57:18.872Z,22.8
2023-04-25T10:03:11.270Z,22.8
2023-04-25T10:09:03.678Z,22.8
2023-04-25T10:14:56.140Z,22.8
2023-04-25T10:20:48.385Z,22.8
2023-04-25T10:26:24.144Z,22.8
2023-04-25T10:32:16.523Z,22.6
2023-04-25T10:38:08.523Z,22.4
2023-04-25T10:43:59.584Z,22.2
2023-04-25T10:49:52.576Z,22.2
2023-04-25T10:55:52.790Z,22.2
2023-04-25T11:01:59.625Z,22.1
2023-04-25T11:08:23.564Z,22.1
2023-04-25T11:14:15.525Z,22.2
2023-04-25T11:20:25.454Z,22.2
2023-04-25T11:26:17.349Z,22.2
2023-04-25T11:32:10.582Z,22.1
2023-04-25T11:38:03.149Z,22.1
2023-04-25T11:44:05.815Z,22.1
2023-04-25T11:50:05.083Z,22
2023-04-25T11:55:55.254Z,21.9
2023-04-25T12:01:56.358Z,21.9
2023-04-25T12:08:06.449Z,21.9
2023-04-25T12:13:57.802Z,21.9
2023-04-25T12:19:19.297Z,21.9
2023-04-25T12:25:16.787Z,21.8
2023-04-25T12:31:16.280Z,21.6
2023-04-25T12:37:12.130Z,21.6
2023-04-25T12:42:49.115Z,21.6
2023-04-25T12:48:41.320Z,21.6
2023-04-25T12:54:43.874Z,21.6
2023-04-25T13:00:38.377Z,21.4
2023-04-25T13:06:32.365Z,21.4
2023-04-25T13:12:29.049Z,21.4
2023-04-25T13:18:23.021Z,21.4
2023-04-25T13:24:14.389Z,21.3
2023-04-25T13:29:51.505Z,21.3
2023-04-25T13:35:13.522Z,21.2
2023-04-25T13:40:50.699Z,21.2
2023-04-25T13:47:04.243Z,21.2
2023-04-25T13:58:46.600Z,21.2
2023-04-25T14:04:40.215Z,21.2
2023-04-25T14:10:31.697Z,21.3
2023-04-25T14:16:22.706Z,21.3
2023-04-25T14:22:00.139Z,21.2
2023-04-25T14:27:51.664Z,21.2
2023-04-25T14:39:19.498Z,21.2
2023-04-25T15:00:28.754Z,21.1
2023-04-25T15:06:07.044Z,21.1
2023-04-25T15:11:47.459Z,21.1
2023-04-25T15:17:28.491Z,21
2023-04-25T15:23:03.855Z,21
2023-04-25T15:28:41.170Z,20.9
2023-04-25T15:34:18.195Z,20.9
2023-04-25T15:40:11.079Z,20.9
2023-04-25T15:46:03.291Z,20.9
2023-04-25T15:51:42.865Z,20.9
2023-04-25T15:57:04.539Z,20.9
2023-04-25T16:02:59.037Z,20.9
2023-04-25T16:08:53.764Z,20.9
2023-04-25T16:14:29.053Z,20.9
2023-04-25T16:20:06.580Z,20.9
2023-04-25T16:25:44.061Z,20.9
2023-04-25T16:31:20.341Z,20.9
2023-04-25T16:36:44.237Z,20.9
2023-04-25T16:42:21.197Z,20.9
2023-04-25T16:47:57.471Z,20.9
2023-04-25T16:53:18.649Z,20.9
2023-04-25T16:58:41.412Z,20.9
2023-04-25T17:04:20.019Z,20.9
2023-04-25T17:10:12.574Z,20.9
2023-04-25T17:15:58.534Z,20.9
2023-04-25T17:21:20.470Z,20.9
2023-04-25T17:26:42.204Z,20.9
2023-04-25T17:32:03.102Z,20.9
2023-04-25T17:36:52.376Z,20.9
2023-04-25T17:42:29.666Z,20.9
2023-04-25T17:47:51.102Z,20.9
2023-04-25T17:52:56.904Z,20.9
2023-04-25T17:58:21.120Z,20.9
2023-04-25T18:03:28.736Z,20.8
2023-04-25T18:09:06.539Z,20.8
2023-04-25T18:14:27.470Z,20.9
2023-04-25T18:20:03.897Z,20.9
2023-04-25T18:25:56.465Z,20.8
2023-04-25T18:31:25.631Z,20.8
2023-04-25T18:37:00.793Z,20.8
2023-04-25T18:43:46.561Z,20.8
2023-04-25T18:54:48.983Z,20.8
2023-04-25T19:00:42.246Z,20.8
2023-04-25T19:06:23.267Z,20.8
2023-04-25T19:12:10.477Z,20.8
2023-04-25T19:17:48.593Z,20.8
2023-04-25T19:23:42.673Z,20.8
2023-04-25T19:29:39.835Z,20.7
2023-04-25T19:35:18.162Z,20.8
2023-04-25T19:40:57.435Z,20.8
2023-04-25T19:46:36.115Z,20.7
2023-04-25T19:51:59.155Z,20.7
2023-04-25T19:57:37.668Z,20.7
2023-04-25T20:03:16.646Z,20.7
2023-04-25T20:08:56.386Z,20.7
2023-04-25T20:14:33.986Z,20.7
2023-04-25T20:20:11.945Z,20.7
2023-04-25T20:25:48.121Z,20.7
2023-04-25T20:31:26.741Z,20.6
2023-04-25T20:37:21.452Z,20.6
2023-04-25T20:43:13.110Z,20.6
2023-04-25T20:48:49.702Z,20.6
2023-04-25T20:54:42.354Z,20.6
2023-04-25T21:06:11.446Z,20.7
2023-04-25T21:11:47.185Z,20.8
2023-04-25T21:17:40.594Z,20.9
2023-04-25T21:23:32.486Z,21
2023-04-25T21:29:08.132Z,21.1
2023-04-25T21:35:00.576Z,21.2
2023-04-25T21:40:37.253Z,21.3
2023-04-25T21:46:42.086Z,21.4
2023-04-25T21:52:19.542Z,21.4
2023-04-25T21:57:56.153Z,21.5
2023-04-25T22:03:48.772Z,21.6
2023-04-25T22:14:43.916Z,21.7
2023-04-25T22:20:20.476Z,21.8
2023-04-25T22:25:56.513Z,21.8
2023-04-25T22:31:48.296Z,21.8
2023-04-25T22:37:38.695Z,21.8
2023-04-25T22:43:30.334Z,21.9
2023-04-25T22:49:22.808Z,21.9
